sensor_id;sensor_type;location;lat;lon;timestamp;P1;durP1;ratioP1;P2;durP2;ratioP2
75912;SDS011;64592;52.168;21.040;2023-07-13T00:04:01;11.90;;;8.75;;
75912;SDS011;64592;52.168;21.040;2023-07-13T00:09:04;11.40;;;9.23;;
75912;SDS011;64592;52.168;21.040;2023-07-13T00:14:06;14.40;;;9.82;;
75912;SDS011;64592;52.168;21.040;2023-07-13T00:19:09;10.82;;;8.63;;
75912;SDS011;64592;52.168;21.040;2023-07-13T00:24:13;12.38;;;9.15;;
75912;SDS011;64592;52.168;21.040;2023-07-13T00:29:18;15.40;;;8.73;;
75912;SDS011;64592;52.168;21.040;2023-07-13T00:34:21;13.45;;;9.38;;
75912;SDS011;64592;52.168;21.040;2023-07-13T00:39:24;12.60;;;8.23;;
75912;SDS011;64592;52.168;21.040;2023-07-13T00:44:26;11.95;;;8.25;;
75912;SDS011;64592;52.168;21.040;2023-07-13T00:49:29;11.90;;;8.50;;
75912;SDS011;64592;52.168;21.040;2023-07-13T00:54:35;11.02;;;8.18;;
75912;SDS011;64592;52.168;21.040;2023-07-13T00:59:43;12.88;;;8.52;;
75912;SDS011;64592;52.168;21.040;2023-07-13T01:04:49;12.95;;;8.48;;
75912;SDS011;64592;52.168;21.040;2023-07-13T01:09:53;11.50;;;7.55;;
75912;SDS011;64592;52.168;21.040;2023-07-13T01:14:56;11.27;;;8.45;;
75912;SDS011;64592;52.168;21.040;2023-07-13T01:25:03;16.30;;;9.55;;
75912;SDS011;64592;52.168;21.040;2023-07-13T01:30:06;14.82;;;8.65;;
75912;SDS011;64592;52.168;21.040;2023-07-13T01:35:08;12.98;;;9.25;;
75912;SDS011;64592;52.168;21.040;2023-07-13T01:40:11;14.60;;;9.07;;
75912;SDS011;64592;52.168;21.040;2023-07-13T01:45:13;13.70;;;8.93;;
75912;SDS011;64592;52.168;21.040;2023-07-13T01:50:15;11.40;;;8.35;;
75912;SDS011;64592;52.168;21.040;2023-07-13T01:55:18;11.82;;;8.15;;
75912;SDS011;64592;52.168;21.040;2023-07-13T02:00:20;11.25;;;8.43;;
75912;SDS011;64592;52.168;21.040;2023-07-13T02:05:22;13.75;;;9.85;;
75912;SDS011;64592;52.168;21.040;2023-07-13T02:10:25;16.90;;;9.63;;
75912;SDS011;64592;52.168;21.040;2023-07-13T02:15:28;10.95;;;8.75;;
75912;SDS011;64592;52.168;21.040;2023-07-13T02:20:30;13.63;;;9.40;;
75912;SDS011;64592;52.168;21.040;2023-07-13T02:25:33;14.57;;;9.38;;
75912;SDS011;64592;52.168;21.040;2023-07-13T02:30:35;15.95;;;9.63;;
75912;SDS011;64592;52.168;21.040;2023-07-13T02:35:37;14.18;;;9.07;;
75912;SDS011;64592;52.168;21.040;2023-07-13T02:40:40;13.05;;;9.77;;
75912;SDS011;64592;52.168;21.040;2023-07-13T02:45:43;9.57;;;8.10;;
75912;SDS011;64592;52.168;21.040;2023-07-13T02:50:45;15.40;;;9.10;;
75912;SDS011;64592;52.168;21.040;2023-07-13T02:55:48;13.82;;;9.13;;
75912;SDS011;64592;52.168;21.040;2023-07-13T03:00:49;14.48;;;9.98;;
75912;SDS011;64592;52.168;21.040;2023-07-13T03:05:57;11.75;;;8.95;;
75912;SDS011;64592;52.168;21.040;2023-07-13T03:11:02;13.07;;;9.32;;
75912;SDS011;64592;52.168;21.040;2023-07-13T03:16:06;13.18;;;10.32;;
75912;SDS011;64592;52.168;21.040;2023-07-13T03:21:09;16.77;;;9.13;;
75912;SDS011;64592;52.168;21.040;2023-07-13T03:26:13;12.55;;;8.88;;
75912;SDS011;64592;52.168;21.040;2023-07-13T03:31:18;17.63;;;9.68;;
75912;SDS011;64592;52.168;21.040;2023-07-13T03:36:22;15.95;;;10.85;;
75912;SDS011;64592;52.168;21.040;2023-07-13T03:41:28;11.07;;;8.80;;
75912;SDS011;64592;52.168;21.040;2023-07-13T03:46:30;12.35;;;9.07;;
75912;SDS011;64592;52.168;21.040;2023-07-13T03:51:33;13.18;;;9.80;;
75912;SDS011;64592;52.168;21.040;2023-07-13T03:56:36;13.45;;;10.15;;
75912;SDS011;64592;52.168;21.040;2023-07-13T04:01:38;13.68;;;10.10;;
75912;SDS011;64592;52.168;21.040;2023-07-13T04:06:40;15.70;;;11.10;;
75912;SDS011;64592;52.168;21.040;2023-07-13T04:11:43;18.02;;;10.15;;
75912;SDS011;64592;52.168;21.040;2023-07-13T04:16:44;19.20;;;11.30;;
75912;SDS011;64592;52.168;21.040;2023-07-13T04:21:46;13.90;;;10.82;;
75912;SDS011;64592;52.168;21.040;2023-07-13T04:26:49;17.17;;;12.50;;
75912;SDS011;64592;52.168;21.040;2023-07-13T04:31:51;15.82;;;10.15;;
75912;SDS011;64592;52.168;21.040;2023-07-13T04:36:53;14.93;;;10.93;;
75912;SDS011;64592;52.168;21.040;2023-07-13T04:41:56;17.77;;;10.00;;
75912;SDS011;64592;52.168;21.040;2023-07-13T04:46:57;14.52;;;9.98;;
75912;SDS011;64592;52.168;21.040;2023-07-13T04:51:59;16.02;;;10.55;;
75912;SDS011;64592;52.168;21.040;2023-07-13T04:57:02;17.48;;;11.73;;
75912;SDS011;64592;52.168;21.040;2023-07-13T05:02:04;16.92;;;11.30;;
75912;SDS011;64592;52.168;21.040;2023-07-13T05:07:06;13.25;;;9.95;;
75912;SDS011;64592;52.168;21.040;2023-07-13T05:12:09;15.70;;;11.25;;
75912;SDS011;64592;52.168;21.040;2023-07-13T05:17:11;15.32;;;11.63;;
75912;SDS011;64592;52.168;21.040;2023-07-13T05:22:13;16.20;;;10.98;;
75912;SDS011;64592;52.168;21.040;2023-07-13T05:27:16;14.27;;;11.55;;
75912;SDS011;64592;52.168;21.040;2023-07-13T05:32:18;17.27;;;12.25;;
75912;SDS011;64592;52.168;21.040;2023-07-13T05:37:20;15.38;;;11.50;;
75912;SDS011;64592;52.168;21.040;2023-07-13T05:42:23;15.82;;;11.25;;
75912;SDS011;64592;52.168;21.040;2023-07-13T05:47:24;15.15;;;11.18;;
75912;SDS011;64592;52.168;21.040;2023-07-13T05:52:26;19.77;;;11.20;;
75912;SDS011;64592;52.168;21.040;2023-07-13T05:57:29;17.17;;;10.38;;
75912;SDS011;64592;52.168;21.040;2023-07-13T06:02:31;14.43;;;9.18;;
75912;SDS011;64592;52.168;21.040;2023-07-13T06:07:33;14.45;;;10.55;;
75912;SDS011;64592;52.168;21.040;2023-07-13T06:12:36;15.38;;;12.13;;
75912;SDS011;64592;52.168;21.040;2023-07-13T06:17:38;13.57;;;10.57;;
75912;SDS011;64592;52.168;21.040;2023-07-13T06:22:39;16.15;;;11.35;;
75912;SDS011;64592;52.168;21.040;2023-07-13T06:27:42;12.85;;;9.75;;
75912;SDS011;64592;52.168;21.040;2023-07-13T06:32:44;19.65;;;11.18;;
75912;SDS011;64592;52.168;21.040;2023-07-13T06:37:46;15.98;;;11.23;;
75912;SDS011;64592;52.168;21.040;2023-07-13T06:42:49;13.05;;;10.10;;
75912;SDS011;64592;52.168;21.040;2023-07-13T06:47:51;12.75;;;9.60;;
75912;SDS011;64592;52.168;21.040;2023-07-13T06:52:52;10.35;;;8.02;;
75912;SDS011;64592;52.168;21.040;2023-07-13T06:57:55;9.07;;;6.45;;
75912;SDS011;64592;52.168;21.040;2023-07-13T07:02:57;9.13;;;6.40;;
75912;SDS011;64592;52.168;21.040;2023-07-13T07:07:59;9.50;;;6.03;;
75912;SDS011;64592;52.168;21.040;2023-07-13T07:13:02;8.65;;;5.38;;
75912;SDS011;64592;52.168;21.040;2023-07-13T07:18:04;8.07;;;5.22;;
75912;SDS011;64592;52.168;21.040;2023-07-13T07:23:07;9.07;;;5.20;;
75912;SDS011;64592;52.168;21.040;2023-07-13T07:28:11;12.07;;;5.47;;
75912;SDS011;64592;52.168;21.040;2023-07-13T07:33:14;10.50;;;5.28;;
75912;SDS011;64592;52.168;21.040;2023-07-13T07:38:16;7.80;;;5.25;;
75912;SDS011;64592;52.168;21.040;2023-07-13T07:43:19;8.52;;;4.45;;
75912;SDS011;64592;52.168;21.040;2023-07-13T07:48:21;5.30;;;3.53;;
75912;SDS011;64592;52.168;21.040;2023-07-13T07:53:22;6.18;;;3.28;;
75912;SDS011;64592;52.168;21.040;2023-07-13T07:58:25;10.73;;;5.05;;
75912;SDS011;64592;52.168;21.040;2023-07-13T08:03:27;4.53;;;3.50;;
75912;SDS011;64592;52.168;21.040;2023-07-13T08:08:29;6.18;;;4.28;;
75912;SDS011;64592;52.168;21.040;2023-07-13T08:13:32;5.82;;;4.57;;
75912;SDS011;64592;52.168;21.040;2023-07-13T08:18:33;6.03;;;4.07;;
75912;SDS011;64592;52.168;21.040;2023-07-13T08:23:35;5.00;;;3.67;;
75912;SDS011;64592;52.168;21.040;2023-07-13T08:28:38;6.07;;;4.03;;
75912;SDS011;64592;52.168;21.040;2023-07-13T08:33:41;7.38;;;4.30;;
75912;SDS011;64592;52.168;21.040;2023-07-13T08:38:42;5.15;;;3.90;;
75912;SDS011;64592;52.168;21.040;2023-07-13T08:43:46;7.40;;;4.82;;
75912;SDS011;64592;52.168;21.040;2023-07-13T08:48:52;7.47;;;5.05;;
75912;SDS011;64592;52.168;21.040;2023-07-13T08:53:55;6.88;;;4.80;;
75912;SDS011;64592;52.168;21.040;2023-07-13T08:59:04;7.10;;;4.63;;
75912;SDS011;64592;52.168;21.040;2023-07-13T09:04:11;6.97;;;5.13;;
75912;SDS011;64592;52.168;21.040;2023-07-13T09:09:20;6.57;;;5.47;;
75912;SDS011;64592;52.168;21.040;2023-07-13T09:14:41;8.45;;;6.05;;
75912;SDS011;64592;52.168;21.040;2023-07-13T09:19:47;7.07;;;5.22;;
75912;SDS011;64592;52.168;21.040;2023-07-13T09:24:56;8.02;;;5.65;;
75912;SDS011;64592;52.168;21.040;2023-07-13T09:30:11;7.63;;;5.50;;
75912;SDS011;64592;52.168;21.040;2023-07-13T09:35:25;11.00;;;6.55;;
75912;SDS011;64592;52.168;21.040;2023-07-13T09:40:36;12.85;;;6.55;;
75912;SDS011;64592;52.168;21.040;2023-07-13T09:45:47;10.32;;;6.80;;
75912;SDS011;64592;52.168;21.040;2023-07-13T09:50:49;9.35;;;6.78;;
75912;SDS011;64592;52.168;21.040;2023-07-13T09:55:56;8.65;;;6.75;;
75912;SDS011;64592;52.168;21.040;2023-07-13T10:00:59;8.05;;;6.13;;
75912;SDS011;64592;52.168;21.040;2023-07-13T10:06:09;5.65;;;3.92;;
75912;SDS011;64592;52.168;21.040;2023-07-13T10:11:16;9.00;;;4.03;;
75912;SDS011;64592;52.168;21.040;2023-07-13T10:16:21;5.95;;;3.85;;
75912;SDS011;64592;52.168;21.040;2023-07-13T10:21:26;7.57;;;4.20;;
75912;SDS011;64592;52.168;21.040;2023-07-13T10:26:33;6.88;;;4.28;;
75912;SDS011;64592;52.168;21.040;2023-07-13T10:31:37;5.88;;;3.90;;
75912;SDS011;64592;52.168;21.040;2023-07-13T10:36:40;7.05;;;4.20;;
75912;SDS011;64592;52.168;21.040;2023-07-13T10:41:45;5.30;;;3.97;;
75912;SDS011;64592;52.168;21.040;2023-07-13T10:46:53;4.53;;;3.58;;
75912;SDS011;64592;52.168;21.040;2023-07-13T10:51:58;7.07;;;4.00;;
75912;SDS011;64592;52.168;21.040;2023-07-13T11:02:26;5.40;;;3.55;;
75912;SDS011;64592;52.168;21.040;2023-07-13T11:07:30;5.47;;;3.50;;
75912;SDS011;64592;52.168;21.040;2023-07-13T11:12:52;13.60;;;5.85;;
75912;SDS011;64592;52.168;21.040;2023-07-13T11:17:56;13.40;;;6.63;;
75912;SDS011;64592;52.168;21.040;2023-07-13T11:28:30;12.07;;;7.20;;
75912;SDS011;64592;52.168;21.040;2023-07-13T11:39:02;10.38;;;6.78;;
75912;SDS011;64592;52.168;21.040;2023-07-13T11:44:10;15.40;;;7.85;;
75912;SDS011;64592;52.168;21.040;2023-07-13T11:49:19;12.35;;;7.68;;
75912;SDS011;64592;52.168;21.040;2023-07-13T11:54:24;12.93;;;7.90;;
75912;SDS011;64592;52.168;21.040;2023-07-13T11:59:29;10.32;;;7.68;;
75912;SDS011;64592;52.168;21.040;2023-07-13T12:04:34;12.32;;;8.85;;
75912;SDS011;64592;52.168;21.040;2023-07-13T12:09:36;12.27;;;8.10;;
75912;SDS011;64592;52.168;21.040;2023-07-13T12:14:38;13.18;;;8.60;;
75912;SDS011;64592;52.168;21.040;2023-07-13T12:19:41;11.65;;;8.10;;
75912;SDS011;64592;52.168;21.040;2023-07-13T12:24:43;13.48;;;8.80;;
75912;SDS011;64592;52.168;21.040;2023-07-13T12:29:49;13.68;;;7.93;;
75912;SDS011;64592;52.168;21.040;2023-07-13T12:34:55;11.25;;;7.40;;
75912;SDS011;64592;52.168;21.040;2023-07-13T12:39:58;11.07;;;7.00;;
75912;SDS011;64592;52.168;21.040;2023-07-13T12:45:01;10.85;;;6.25;;
75912;SDS011;64592;52.168;21.040;2023-07-13T12:50:14;9.68;;;6.85;;
75912;SDS011;64592;52.168;21.040;2023-07-13T12:55:18;10.90;;;6.72;;
75912;SDS011;64592;52.168;21.040;2023-07-13T13:00:23;12.05;;;7.60;;
75912;SDS011;64592;52.168;21.040;2023-07-13T13:05:29;10.20;;;7.38;;
75912;SDS011;64592;52.168;21.040;2023-07-13T13:10:32;9.95;;;7.25;;
75912;SDS011;64592;52.168;21.040;2023-07-13T13:15:36;11.75;;;7.45;;
75912;SDS011;64592;52.168;21.040;2023-07-13T13:20:39;11.27;;;7.28;;
75912;SDS011;64592;52.168;21.040;2023-07-13T13:25:41;10.18;;;6.75;;
75912;SDS011;64592;52.168;21.040;2023-07-13T13:30:43;9.80;;;6.88;;
75912;SDS011;64592;52.168;21.040;2023-07-13T13:35:46;18.58;;;7.78;;
75912;SDS011;64592;52.168;21.040;2023-07-13T13:40:49;9.75;;;7.70;;
75912;SDS011;64592;52.168;21.040;2023-07-13T13:45:50;17.15;;;8.63;;
75912;SDS011;64592;52.168;21.040;2023-07-13T13:50:53;15.80;;;9.18;;
75912;SDS011;64592;52.168;21.040;2023-07-13T13:55:55;11.98;;;8.82;;
75912;SDS011;64592;52.168;21.040;2023-07-13T14:00:57;13.70;;;9.35;;
75912;SDS011;64592;52.168;21.040;2023-07-13T14:06:00;10.98;;;9.57;;
75912;SDS011;64592;52.168;21.040;2023-07-13T14:11:02;13.93;;;9.90;;
75912;SDS011;64592;52.168;21.040;2023-07-13T14:16:04;15.35;;;10.48;;
75912;SDS011;64592;52.168;21.040;2023-07-13T14:21:15;13.30;;;10.52;;
75912;SDS011;64592;52.168;21.040;2023-07-13T14:26:19;13.80;;;8.68;;
75912;SDS011;64592;52.168;21.040;2023-07-13T14:31:24;14.30;;;8.60;;
75912;SDS011;64592;52.168;21.040;2023-07-13T14:36:31;10.13;;;8.18;;
75912;SDS011;64592;52.168;21.040;2023-07-13T14:41:34;7.80;;;5.50;;
75912;SDS011;64592;52.168;21.040;2023-07-13T14:46:36;9.38;;;6.05;;
75912;SDS011;64592;52.168;21.040;2023-07-13T14:51:39;7.43;;;5.38;;
75912;SDS011;64592;52.168;21.040;2023-07-13T14:56:40;8.63;;;6.00;;
75912;SDS011;64592;52.168;21.040;2023-07-13T15:01:42;8.65;;;5.88;;
75912;SDS011;64592;52.168;21.040;2023-07-13T15:06:55;6.80;;;5.00;;
75912;SDS011;64592;52.168;21.040;2023-07-13T15:11:59;6.07;;;4.32;;
75912;SDS011;64592;52.168;21.040;2023-07-13T15:17:00;9.45;;;4.70;;
75912;SDS011;64592;52.168;21.040;2023-07-13T15:22:04;8.07;;;4.60;;
75912;SDS011;64592;52.168;21.040;2023-07-13T15:27:08;8.88;;;4.82;;
75912;SDS011;64592;52.168;21.040;2023-07-13T15:32:12;14.07;;;5.50;;
75912;SDS011;64592;52.168;21.040;2023-07-13T15:37:16;7.63;;;5.57;;
75912;SDS011;64592;52.168;21.040;2023-07-13T15:42:19;7.53;;;5.20;;
75912;SDS011;64592;52.168;21.040;2023-07-13T15:47:22;8.50;;;4.95;;
75912;SDS011;64592;52.168;21.040;2023-07-13T15:52:25;9.43;;;5.40;;
75912;SDS011;64592;52.168;21.040;2023-07-13T15:57:26;6.88;;;4.93;;
75912;SDS011;64592;52.168;21.040;2023-07-13T16:02:28;9.75;;;5.85;;
75912;SDS011;64592;52.168;21.040;2023-07-13T16:07:31;8.90;;;6.07;;
75912;SDS011;64592;52.168;21.040;2023-07-13T16:12:33;6.88;;;5.72;;
75912;SDS011;64592;52.168;21.040;2023-07-13T16:17:35;9.15;;;6.65;;
75912;SDS011;64592;52.168;21.040;2023-07-13T16:22:38;7.40;;;5.95;;
75912;SDS011;64592;52.168;21.040;2023-07-13T16:27:41;9.00;;;6.35;;
75912;SDS011;64592;52.168;21.040;2023-07-13T16:32:43;9.70;;;6.97;;
75912;SDS011;64592;52.168;21.040;2023-07-13T16:37:47;9.50;;;6.78;;
75912;SDS011;64592;52.168;21.040;2023-07-13T16:42:49;8.02;;;5.60;;
75912;SDS011;64592;52.168;21.040;2023-07-13T16:47:53;11.50;;;6.45;;
75912;SDS011;64592;52.168;21.040;2023-07-13T16:52:57;8.05;;;6.50;;
75912;SDS011;64592;52.168;21.040;2023-07-13T16:57:59;10.57;;;6.55;;
75912;SDS011;64592;52.168;21.040;2023-07-13T17:03:04;8.95;;;7.57;;
75912;SDS011;64592;52.168;21.040;2023-07-13T17:08:12;9.75;;;6.78;;
75912;SDS011;64592;52.168;21.040;2023-07-13T17:13:16;8.95;;;7.20;;
75912;SDS011;64592;52.168;21.040;2023-07-13T17:18:19;7.35;;;6.50;;
75912;SDS011;64592;52.168;21.040;2023-07-13T17:23:23;8.95;;;6.85;;
75912;SDS011;64592;52.168;21.040;2023-07-13T17:28:26;9.98;;;7.10;;
75912;SDS011;64592;52.168;21.040;2023-07-13T17:33:30;9.70;;;7.20;;
75912;SDS011;64592;52.168;21.040;2023-07-13T17:38:36;9.43;;;7.30;;
75912;SDS011;64592;52.168;21.040;2023-07-13T17:43:40;12.13;;;7.60;;
75912;SDS011;64592;52.168;21.040;2023-07-13T17:48:43;12.43;;;7.35;;
75912;SDS011;64592;52.168;21.040;2023-07-13T17:53:47;7.85;;;6.85;;
75912;SDS011;64592;52.168;21.040;2023-07-13T17:58:49;10.23;;;7.40;;
75912;SDS011;64592;52.168;21.040;2023-07-13T18:03:51;10.88;;;7.30;;
75912;SDS011;64592;52.168;21.040;2023-07-13T18:08:59;11.70;;;7.30;;
75912;SDS011;64592;52.168;21.040;2023-07-13T18:14:02;8.52;;;6.95;;
75912;SDS011;64592;52.168;21.040;2023-07-13T18:19:05;10.52;;;7.07;;
75912;SDS011;64592;52.168;21.040;2023-07-13T18:24:18;10.60;;;7.03;;
75912;SDS011;64592;52.168;21.040;2023-07-13T18:29:20;10.73;;;7.22;;
75912;SDS011;64592;52.168;21.040;2023-07-13T18:34:22;8.45;;;7.32;;
75912;SDS011;64592;52.168;21.040;2023-07-13T18:39:25;8.27;;;6.78;;
75912;SDS011;64592;52.168;21.040;2023-07-13T18:44:26;9.35;;;6.68;;
75912;SDS011;64592;52.168;21.040;2023-07-13T18:49:28;9.02;;;7.13;;
75912;SDS011;64592;52.168;21.040;2023-07-13T18:54:31;9.77;;;7.70;;
75912;SDS011;64592;52.168;21.040;2023-07-13T18:59:33;10.93;;;7.60;;
75912;SDS011;64592;52.168;21.040;2023-07-13T19:04:35;8.63;;;7.05;;
75912;SDS011;64592;52.168;21.040;2023-07-13T19:09:38;9.25;;;6.95;;
75912;SDS011;64592;52.168;21.040;2023-07-13T19:14:40;10.25;;;6.65;;
75912;SDS011;64592;52.168;21.040;2023-07-13T19:19:42;7.93;;;7.03;;
75912;SDS011;64592;52.168;21.040;2023-07-13T19:24:46;8.70;;;6.78;;
75912;SDS011;64592;52.168;21.040;2023-07-13T19:29:48;8.70;;;6.97;;
75912;SDS011;64592;52.168;21.040;2023-07-13T19:34:50;11.73;;;7.97;;
75912;SDS011;64592;52.168;21.040;2023-07-13T19:39:54;10.13;;;7.50;;
75912;SDS011;64592;52.168;21.040;2023-07-13T19:44:57;10.02;;;6.95;;
75912;SDS011;64592;52.168;21.040;2023-07-13T19:50:00;9.75;;;6.90;;
75912;SDS011;64592;52.168;21.040;2023-07-13T19:55:07;9.70;;;7.03;;
75912;SDS011;64592;52.168;21.040;2023-07-13T20:00:13;9.98;;;7.40;;
75912;SDS011;64592;52.168;21.040;2023-07-13T20:05:18;9.13;;;7.07;;
75912;SDS011;64592;52.168;21.040;2023-07-13T20:10:29;8.90;;;7.05;;
75912;SDS011;64592;52.168;21.040;2023-07-13T20:20:36;10.80;;;6.90;;
75912;SDS011;64592;52.168;21.040;2023-07-13T20:25:41;8.63;;;6.32;;
75912;SDS011;64592;52.168;21.040;2023-07-13T20:30:44;8.20;;;6.05;;
75912;SDS011;64592;52.168;21.040;2023-07-13T20:35:48;8.10;;;6.15;;
75912;SDS011;64592;52.168;21.040;2023-07-13T20:40:51;8.27;;;6.68;;
75912;SDS011;64592;52.168;21.040;2023-07-13T20:45:55;10.85;;;7.07;;
75912;SDS011;64592;52.168;21.040;2023-07-13T20:50:59;7.57;;;6.47;;
75912;SDS011;64592;52.168;21.040;2023-07-13T20:56:08;9.85;;;6.40;;
75912;SDS011;64592;52.168;21.040;2023-07-13T21:01:13;8.77;;;6.60;;
75912;SDS011;64592;52.168;21.040;2023-07-13T21:06:16;8.15;;;6.45;;
75912;SDS011;64592;52.168;21.040;2023-07-13T21:11:21;9.63;;;6.18;;
75912;SDS011;64592;52.168;21.040;2023-07-13T21:16:23;9.70;;;6.25;;
75912;SDS011;64592;52.168;21.040;2023-07-13T21:21:27;7.05;;;6.05;;
75912;SDS011;64592;52.168;21.040;2023-07-13T21:26:31;10.32;;;6.85;;
75912;SDS011;64592;52.168;21.040;2023-07-13T21:31:33;8.98;;;6.97;;
75912;SDS011;64592;52.168;21.040;2023-07-13T21:36:36;8.80;;;6.97;;
75912;SDS011;64592;52.168;21.040;2023-07-13T21:41:40;9.98;;;7.03;;
75912;SDS011;64592;52.168;21.040;2023-07-13T21:46:43;11.15;;;7.82;;
75912;SDS011;64592;52.168;21.040;2023-07-13T21:51:44;11.23;;;6.95;;
75912;SDS011;64592;52.168;21.040;2023-07-13T21:56:48;10.23;;;7.57;;
75912;SDS011;64592;52.168;21.040;2023-07-13T22:01:50;10.98;;;7.68;;
75912;SDS011;64592;52.168;21.040;2023-07-13T22:06:52;12.98;;;8.15;;
75912;SDS011;64592;52.168;21.040;2023-07-13T22:11:56;9.60;;;7.70;;
75912;SDS011;64592;52.168;21.040;2023-07-13T22:16:58;12.10;;;7.72;;
75912;SDS011;64592;52.168;21.040;2023-07-13T22:22:00;10.52;;;8.80;;
75912;SDS011;64592;52.168;21.040;2023-07-13T22:27:03;11.45;;;8.57;;
75912;SDS011;64592;52.168;21.040;2023-07-13T22:32:07;12.27;;;8.45;;
75912;SDS011;64592;52.168;21.040;2023-07-13T22:37:10;12.95;;;8.77;;
75912;SDS011;64592;52.168;21.040;2023-07-13T22:42:13;12.38;;;8.35;;
75912;SDS011;64592;52.168;21.040;2023-07-13T22:47:15;11.68;;;8.50;;
75912;SDS011;64592;52.168;21.040;2023-07-13T22:52:20;13.65;;;9.43;;
75912;SDS011;64592;52.168;21.040;2023-07-13T22:57:24;14.60;;;9.43;;
75912;SDS011;64592;52.168;21.040;2023-07-13T23:02:25;13.20;;;9.52;;
75912;SDS011;64592;52.168;21.040;2023-07-13T23:07:27;11.88;;;9.38;;
75912;SDS011;64592;52.168;21.040;2023-07-13T23:12:30;14.10;;;9.57;;
75912;SDS011;64592;52.168;21.040;2023-07-13T23:17:32;15.00;;;10.15;;
75912;SDS011;64592;52.168;21.040;2023-07-13T23:22:34;13.05;;;9.48;;
75912;SDS011;64592;52.168;21.040;2023-07-13T23:27:37;14.20;;;10.02;;
75912;SDS011;64592;52.168;21.040;2023-07-13T23:32:38;12.75;;;9.25;;
75912;SDS011;64592;52.168;21.040;2023-07-13T23:37:41;11.73;;;9.80;;
75912;SDS011;64592;52.168;21.040;2023-07-13T23:42:45;13.85;;;9.82;;
75912;SDS011;64592;52.168;21.040;2023-07-13T23:47:48;15.15;;;9.80;;
75912;SDS011;64592;52.168;21.040;2023-07-13T23:52:52;16.10;;;10.73;;
75912;SDS011;64592;52.168;21.040;2023-07-13T23:57:58;16.25;;;10.98;;
